createdAt,value
2023-01-22T00:00:00.840Z,90.3
2023-01-22T00:01:00.993Z,90.3
2023-01-22T00:02:01.137Z,90.4
2023-01-22T00:03:00.336Z,90.4
2023-01-22T00:04:00.495Z,90.3
2023-01-22T00:05:00.581Z,90.3
2023-01-22T00:06:00.721Z,90.3
2023-01-22T00:07:00.861Z,90.3
2023-01-22T00:08:01.024Z,90.3
2023-01-22T00:09:01.194Z,90.3
2023-01-22T00:10:00.444Z,90.3
2023-01-22T00:11:00.470Z,90.3
2023-01-22T00:12:00.608Z,90.3
2023-01-22T00:13:00.749Z,90.3
2023-01-22T00:14:00.983Z,90.3
2023-01-22T00:15:01.051Z,90.3
2023-01-22T00:16:01.339Z,90.3
2023-01-22T00:17:00.374Z,90.3
2023-01-22T00:18:00.502Z,90.3
2023-01-22T00:19:00.649Z,90.3
2023-01-22T00:20:00.795Z,90.3
2023-01-22T00:21:00.951Z,90.3
2023-01-22T00:22:01.114Z,90.3
2023-01-22T00:23:01.245Z,90.3
2023-01-22T00:24:00.398Z,90.3
2023-01-22T00:25:00.541Z,90.3
2023-01-22T00:26:00.696Z,90.2
2023-01-22T00:27:00.866Z,90.2
2023-01-22T00:28:00.979Z,90.2
2023-01-22T00:29:01.122Z,90.2
2023-01-22T00:30:00.271Z,90.2
2023-01-22T00:31:00.557Z,90.2
2023-01-22T00:32:00.718Z,90.2
2023-01-22T00:33:00.715Z,90.2
2023-01-22T00:34:00.864Z,90.2
2023-01-22T00:35:01.001Z,90.2
2023-01-22T00:36:01.149Z,90.2
2023-01-22T00:37:00.312Z,90.2
2023-01-22T00:38:00.523Z,90.2
2023-01-22T00:39:00.601Z,90.2
2023-01-22T00:40:00.746Z,90.2
2023-01-22T00:41:00.898Z,90.2
2023-01-22T00:42:01.052Z,90.2
2023-01-22T00:43:01.209Z,90.1
2023-01-22T00:44:00.346Z,90.1
2023-01-22T00:45:00.488Z,90.1
2023-01-22T00:46:00.648Z,90.1
2023-01-22T00:47:00.773Z,90.1
2023-01-22T00:48:00.950Z,90.1
2023-01-22T00:49:01.088Z,90.1
2023-01-22T00:50:01.241Z,90.1
2023-01-22T00:51:00.418Z,90.1
2023-01-22T00:52:00.529Z,90.1
2023-01-22T00:53:00.681Z,90.1
2023-01-22T00:54:00.847Z,90.1
2023-01-22T00:55:01.010Z,90.1
2023-01-22T00:56:01.106Z,90.1
2023-01-22T00:57:01.259Z,90.1
2023-01-22T00:58:00.439Z,90.1
2023-01-22T00:59:00.571Z,90.1
2023-01-22T01:00:00.708Z,90.1
2023-01-22T01:01:00.902Z,90.1
2023-01-22T01:02:01.045Z,90.1
2023-01-22T01:03:01.135Z,90.1
2023-01-22T01:04:00.310Z,90.1
2023-01-22T01:05:00.430Z,90.1
2023-01-22T01:06:00.608Z,90.1
2023-01-22T01:07:00.731Z,90.1
2023-01-22T01:08:00.869Z,90.1
2023-01-22T01:09:01.044Z,90.1
2023-01-22T01:10:01.184Z,90.1
2023-01-22T01:11:00.317Z,90.1
2023-01-22T01:12:00.482Z,90.1
2023-01-22T01:13:00.611Z,90.1
2023-01-22T01:14:00.755Z,90.1
2023-01-22T01:15:00.918Z,90.1
2023-01-22T01:16:01.089Z,90.1
2023-01-22T01:17:01.211Z,90
2023-01-22T01:18:00.339Z,90
2023-01-22T01:19:00.512Z,90
2023-01-22T01:20:00.658Z,90
2023-01-22T01:21:00.810Z,90
2023-01-22T01:22:00.934Z,90
2023-01-22T01:23:01.079Z,90
2023-01-22T01:24:01.236Z,90
2023-01-22T01:25:00.385Z,90
2023-01-22T01:26:00.540Z,90
2023-01-22T01:27:00.651Z,90
2023-01-22T01:28:00.809Z,90
2023-01-22T01:29:00.952Z,90
2023-01-22T01:30:01.096Z,90
2023-01-22T01:31:01.383Z,90
2023-01-22T01:32:00.505Z,90
2023-01-22T01:33:00.546Z,90
2023-01-22T01:34:00.711Z,90
2023-01-22T01:35:00.852Z,90
2023-01-22T01:36:01.020Z,90
2023-01-22T01:37:01.169Z,90
2023-01-22T01:38:00.292Z,90
2023-01-22T01:39:00.445Z,90
2023-01-22T01:40:00.611Z,90
2023-01-22T01:41:00.763Z,90
2023-01-22T01:42:00.894Z,90
2023-01-22T01:43:01.054Z,90
2023-01-22T01:44:01.186Z,90
2023-01-22T01:45:00.336Z,90
2023-01-22T01:46:00.500Z,90
2023-01-22T01:47:00.627Z,90
2023-01-22T01:48:00.771Z,90
2023-01-22T01:49:00.929Z,90
2023-01-22T01:50:01.088Z,90
2023-01-22T01:51:01.311Z,90
2023-01-22T01:52:00.377Z,90
2023-01-22T01:53:00.517Z,90
2023-01-22T01:54:00.660Z,90
2023-01-22T01:55:00.815Z,90
2023-01-22T01:56:00.966Z,90
2023-01-22T01:57:01.119Z,90.1
2023-01-22T01:58:01.254Z,90.1
2023-01-22T01:59:00.424Z,90.1
2023-01-22T02:00:00.565Z,90.1
2023-01-22T02:01:00.766Z,90.1
2023-01-22T02:02:00.902Z,90.1
2023-01-22T02:03:01.010Z,90.2
2023-01-22T02:04:01.192Z,90.2
2023-01-22T02:05:00.304Z,90.2
2023-01-22T02:06:00.458Z,90.2
2023-01-22T02:07:00.620Z,90.2
2023-01-22T02:08:00.751Z,90.2
2023-01-22T02:09:00.896Z,90.2
2023-01-22T02:10:01.085Z,90.3
2023-01-22T02:11:01.196Z,90.3
2023-01-22T02:12:00.348Z,90.3
2023-01-22T02:13:00.489Z,90.3
2023-01-22T02:14:00.625Z,90.3
2023-01-22T02:15:00.800Z,90.3
2023-01-22T02:16:00.958Z,90.3
2023-01-22T02:17:01.060Z,90.3
2023-01-22T02:18:01.200Z,90.3
2023-01-22T02:19:00.350Z,90.3
2023-01-22T02:20:00.505Z,90.3
2023-01-22T02:21:00.666Z,90.3
2023-01-22T02:22:00.806Z,90.3
2023-01-22T02:23:00.956Z,90.4
2023-01-22T02:24:01.089Z,90.4
2023-01-22T02:25:01.239Z,90.4
2023-01-22T02:26:00.439Z,90.4
2023-01-22T02:27:00.538Z,90.4
2023-01-22T02:28:00.684Z,90.4
2023-01-22T02:29:00.844Z,90.4
2023-01-22T02:30:00.985Z,90.4
2023-01-22T02:31:01.183Z,90.4
2023-01-22T02:32:00.295Z,90.4
2023-01-22T02:33:00.452Z,90.4
2023-01-22T02:34:00.585Z,90.5
2023-01-22T02:35:00.739Z,90.5
2023-01-22T02:36:00.887Z,90.5
2023-01-22T02:37:01.019Z,90.5
2023-01-22T02:38:01.167Z,90.5
2023-01-22T02:39:00.314Z,90.5
2023-01-22T02:40:00.481Z,90.5
2023-01-22T02:41:00.603Z,90.5
2023-01-22T02:42:00.790Z,90.5
2023-01-22T02:43:00.912Z,90.5
2023-01-22T02:44:01.074Z,90.5
2023-01-22T02:45:01.228Z,90.5
2023-01-22T02:46:00.411Z,90.5
2023-01-22T02:47:00.512Z,90.5
2023-01-22T02:48:00.669Z,90.5
2023-01-22T02:49:00.814Z,90.5
2023-01-22T02:50:00.981Z,90.5
2023-01-22T02:51:01.151Z,90.5
2023-01-22T02:52:01.273Z,90.5
2023-01-22T02:53:00.404Z,90.5
2023-01-22T02:54:00.593Z,90.5
2023-01-22T02:55:00.692Z,90.6
2023-01-22T02:56:00.883Z,90.6
2023-01-22T02:57:00.988Z,90.6
2023-01-22T02:58:01.132Z,90.6
2023-01-22T02:59:00.288Z,90.6
2023-01-22T03:00:00.435Z,90.6
2023-01-22T03:01:00.614Z,90.6
2023-01-22T03:02:00.820Z,90.6
2023-01-22T03:03:00.881Z,90.6
2023-01-22T03:04:01.024Z,90.6
2023-01-22T03:05:01.185Z,90.6
2023-01-22T03:06:00.324Z,90.6
2023-01-22T03:07:00.516Z,90.7
2023-01-22T03:08:00.630Z,90.7
2023-01-22T03:09:00.774Z,90.7
2023-01-22T03:10:00.910Z,90.7
2023-01-22T03:11:01.061Z,90.7
2023-01-22T03:12:01.236Z,90.7
2023-01-22T03:13:00.358Z,90.7
2023-01-22T03:14:00.507Z,90.7
2023-01-22T03:15:00.667Z,90.7
2023-01-22T03:16:00.799Z,90.7
2023-01-22T03:17:00.971Z,90.7
2023-01-22T03:18:01.089Z,90.7
2023-01-22T03:19:01.241Z,90.7
2023-01-22T03:20:00.399Z,90.7
2023-01-22T03:21:00.547Z,90.7
2023-01-22T03:22:00.697Z,90.7
2023-01-22T03:23:00.840Z,90.7
2023-01-22T03:24:00.984Z,90.7
2023-01-22T03:25:01.174Z,90.7
2023-01-22T03:26:00.293Z,90.7
2023-01-22T03:27:00.475Z,90.7
2023-01-22T03:28:00.603Z,90.7
2023-01-22T03:29:00.734Z,90.7
2023-01-22T03:30:00.881Z,90.7
2023-01-22T03:31:01.064Z,90.7
2023-01-22T03:32:01.258Z,90.7
2023-01-22T03:33:00.328Z,90.7
2023-01-22T03:34:00.479Z,90.7
2023-01-22T03:35:00.633Z,90.7
2023-01-22T03:36:00.781Z,90.7
2023-01-22T03:37:00.933Z,90.7
2023-01-22T03:38:01.124Z,90.7
2023-01-22T03:39:01.217Z,90.7
2023-01-22T03:40:00.365Z,90.7
2023-01-22T03:41:00.528Z,90.7
2023-01-22T03:42:00.667Z,90.7
2023-01-22T03:43:00.837Z,90.7
2023-01-22T03:44:00.997Z,90.7
2023-01-22T03:45:01.102Z,90.7
2023-01-22T03:46:01.417Z,90.7
2023-01-22T03:47:00.459Z,90.7
2023-01-22T03:48:00.558Z,90.7
2023-01-22T03:49:00.745Z,90.7
2023-01-22T03:50:00.853Z,90.7
2023-01-22T03:51:01.045Z,90.7
2023-01-22T03:52:01.136Z,90.7
2023-01-22T03:53:00.290Z,90.8
2023-01-22T03:54:00.471Z,90.8
2023-01-22T03:55:00.627Z,90.8
2023-01-22T03:56:00.762Z,90.8
2023-01-22T03:57:00.923Z,90.8
2023-01-22T03:58:01.042Z,90.8
2023-01-22T03:59:01.191Z,90.8
2023-01-22T04:00:00.334Z,90.8
2023-01-22T04:01:00.491Z,90.8
2023-01-22T04:02:00.714Z,90.8
2023-01-22T04:03:00.784Z,90.8
2023-01-22T04:04:00.953Z,90.8
2023-01-22T04:05:01.095Z,90.8
2023-01-22T04:06:01.249Z,90.8
2023-01-22T04:07:00.425Z,90.8
2023-01-22T04:08:00.526Z,90.8
2023-01-22T04:09:00.680Z,90.8
2023-01-22T04:10:00.836Z,90.8
2023-01-22T04:11:01.021Z,90.8
2023-01-22T04:12:01.148Z,90.8
2023-01-22T04:13:01.260Z,90.8
2023-01-22T04:14:00.416Z,90.8
2023-01-22T04:15:00.582Z,90.8
2023-01-22T04:16:00.688Z,90.7
2023-01-22T04:17:00.859Z,90.7
2023-01-22T04:18:00.995Z,90.7
2023-01-22T04:19:01.136Z,90.7
2023-01-22T04:20:00.320Z,90.7
2023-01-22T04:21:00.463Z,90.7
2023-01-22T04:22:00.620Z,90.7
2023-01-22T04:23:00.740Z,90.7
2023-01-22T04:24:00.891Z,90.7
2023-01-22T04:25:01.027Z,90.7
2023-01-22T04:26:01.187Z,90.7
2023-01-22T04:27:00.350Z,90.7
2023-01-22T04:28:00.470Z,90.7
2023-01-22T04:29:00.615Z,90.7
2023-01-22T04:30:00.772Z,90.7
2023-01-22T04:31:01.001Z,90.7
2023-01-22T04:32:01.083Z,90.7
2023-01-22T04:33:01.215Z,90.7
2023-01-22T04:34:00.361Z,90.7
2023-01-22T04:35:00.511Z,90.7
2023-01-22T04:36:00.657Z,90.7
2023-01-22T04:37:00.838Z,90.7
2023-01-22T04:38:00.954Z,90.6
2023-01-22T04:39:01.091Z,90.6
2023-01-22T04:40:01.244Z,90.6
2023-01-22T04:41:00.400Z,90.6
2023-01-22T04:42:00.578Z,90.6
2023-01-22T04:43:00.680Z,90.6
2023-01-22T04:44:00.842Z,90.6
2023-01-22T04:45:00.978Z,90.6
2023-01-22T04:46:01.170Z,90.6
2023-01-22T04:47:00.310Z,90.6
2023-01-22T04:48:00.425Z,90.6
2023-01-22T04:49:00.583Z,90.6
2023-01-22T04:50:00.721Z,90.6
2023-01-22T04:51:00.940Z,90.6
2023-01-22T04:52:01.026Z,90.6
2023-01-22T04:53:01.176Z,90.6
2023-01-22T04:54:00.340Z,90.6
2023-01-22T04:55:00.485Z,90.6
2023-01-22T04:56:00.625Z,90.6
2023-01-22T04:57:00.783Z,90.6
2023-01-22T04:58:00.925Z,90.6
2023-01-22T04:59:01.070Z,90.6
2023-01-22T05:00:01.220Z,90.6
2023-01-22T05:01:00.434Z,90.6
2023-01-22T05:02:00.537Z,90.6
2023-01-22T05:03:00.653Z,90.6
2023-01-22T05:04:00.801Z,90.6
2023-01-22T05:05:00.950Z,90.6
2023-01-22T05:06:01.096Z,90.6
2023-01-22T05:07:01.263Z,90.5
2023-01-22T05:08:00.386Z,90.5
2023-01-22T05:09:00.538Z,90.5
2023-01-22T05:10:00.687Z,90.5
2023-01-22T05:11:00.849Z,90.5
2023-01-22T05:12:01.029Z,90.5
2023-01-22T05:13:01.137Z,90.5
2023-01-22T05:14:00.280Z,90.5
2023-01-22T05:15:00.428Z,90.5
2023-01-22T05:16:00.657Z,90.5
2023-01-22T05:17:00.739Z,90.5
2023-01-22T05:18:00.888Z,90.5
2023-01-22T05:19:01.019Z,90.5
2023-01-22T05:20:01.192Z,90.5
2023-01-22T05:21:00.368Z,90.5
2023-01-22T05:22:00.504Z,90.5
2023-01-22T05:23:00.631Z,90.5
2023-01-22T05:24:00.770Z,90.5
2023-01-22T05:25:00.925Z,90.5
2023-01-22T05:26:01.053Z,90.5
2023-01-22T05:27:01.240Z,90.5
2023-01-22T05:28:00.346Z,90.5
2023-01-22T05:29:00.513Z,90.5
2023-01-22T05:30:00.639Z,90.5
2023-01-22T05:31:00.891Z,90.5
2023-01-22T05:32:00.954Z,90.5
2023-01-22T05:33:01.089Z,90.5
2023-01-22T05:34:01.232Z,90.5
2023-01-22T05:35:00.374Z,90.5
2023-01-22T05:36:00.519Z,90.4
2023-01-22T05:37:00.703Z,90.4
2023-01-22T05:38:00.835Z,90.4
2023-01-22T05:39:00.979Z,90.4
2023-01-22T05:40:01.128Z,90.4
2023-01-22T05:41:00.273Z,90.4
2023-01-22T05:42:00.451Z,90.4
2023-01-22T05:43:00.615Z,90.4
2023-01-22T05:44:00.729Z,90.4
2023-01-22T05:45:00.882Z,90.4
2023-01-22T05:46:01.077Z,90.4
2023-01-22T05:47:01.155Z,90.4
2023-01-22T05:48:00.307Z,90.4
2023-01-22T05:49:00.443Z,90.4
2023-01-22T05:50:00.600Z,90.4
2023-01-22T05:51:00.799Z,90.4
2023-01-22T05:52:00.899Z,90.4
2023-01-22T05:53:01.065Z,90.4
2023-01-22T05:54:01.185Z,90.4
2023-01-22T05:55:00.325Z,90.4
2023-01-22T05:56:00.498Z,90.4
2023-01-22T05:57:00.643Z,90.4
2023-01-22T05:58:00.793Z,90.4
2023-01-22T05:59:00.930Z,90.4
2023-01-22T06:00:01.086Z,90.4
2023-01-22T06:01:01.225Z,90.4
2023-01-22T06:02:00.398Z,90.4
2023-01-22T06:03:00.530Z,90.4
2023-01-22T06:04:00.664Z,90.4
2023-01-22T06:05:00.867Z,90.4
2023-01-22T06:06:00.969Z,90.4
2023-01-22T06:07:01.151Z,90.4
2023-01-22T06:08:01.266Z,90.4
2023-01-22T06:09:00.411Z,90.4
2023-01-22T06:10:00.537Z,90.4
2023-01-22T06:11:00.689Z,90.4
2023-01-22T06:12:00.851Z,90.4
2023-01-22T06:13:00.991Z,90.4
2023-01-22T06:14:01.142Z,90.4
2023-01-22T06:15:00.291Z,90.4
2023-01-22T06:16:00.469Z,90.4
2023-01-22T06:17:00.605Z,90.4
2023-01-22T06:18:00.729Z,90.4
2023-01-22T06:19:00.901Z,90.4
2023-01-22T06:20:01.034Z,90.3
2023-01-22T06:21:01.176Z,90.4
2023-01-22T06:22:00.346Z,90.3
2023-01-22T06:23:00.510Z,90.3
2023-01-22T06:24:00.628Z,90.3
2023-01-22T06:25:00.772Z,90.3
2023-01-22T06:26:00.925Z,90.3
2023-01-22T06:27:01.071Z,90.3
2023-01-22T06:28:01.239Z,90.3
2023-01-22T06:29:00.368Z,90.3
2023-01-22T06:30:00.513Z,90.3
2023-01-22T06:31:00.796Z,90.3
2023-01-22T06:32:00.823Z,90.3
2023-01-22T06:33:00.980Z,90.3
2023-01-22T06:34:01.117Z,90.3
2023-01-22T06:35:01.254Z,90.3
2023-01-22T06:36:00.396Z,90.3
2023-01-22T06:37:00.551Z,90.3
2023-01-22T06:38:00.729Z,90.3
2023-01-22T06:39:00.839Z,90.3
2023-01-22T06:40:01.005Z,90.3
2023-01-22T06:41:01.144Z,90.3
2023-01-22T06:42:00.293Z,90.3
2023-01-22T06:43:00.455Z,90.3
2023-01-22T06:44:00.612Z,90.4
2023-01-22T06:45:00.751Z,90.4
2023-01-22T06:46:00.892Z,90.4
2023-01-22T06:47:01.029Z,90.4
2023-01-22T06:48:01.199Z,90.4
2023-01-22T06:49:00.367Z,90.4
2023-01-22T06:50:00.488Z,90.4
2023-01-22T06:51:00.679Z,90.4
2023-01-22T06:52:00.771Z,90.4
2023-01-22T06:53:00.929Z,90.4
2023-01-22T06:54:01.110Z,90.4
2023-01-22T06:55:01.262Z,90.4
2023-01-22T06:56:00.382Z,90.4
2023-01-22T06:57:00.512Z,90.4
2023-01-22T06:58:00.670Z,90.4
2023-01-22T06:59:00.813Z,90.4
2023-01-22T07:00:00.978Z,90.4
2023-01-22T07:01:01.116Z,90.4
2023-01-22T07:02:01.308Z,90.4
2023-01-22T07:03:00.410Z,90.5
2023-01-22T07:04:00.667Z,90.5
2023-01-22T07:05:00.716Z,90.5
2023-01-22T07:06:00.856Z,90.5
2023-01-22T07:07:00.993Z,90.5
2023-01-22T07:08:01.149Z,90.5
2023-01-22T07:09:00.292Z,90.5
2023-01-22T07:10:00.465Z,90.5
2023-01-22T07:11:00.598Z,90.5
2023-01-22T07:12:00.730Z,90.5
2023-01-22T07:13:00.874Z,90.5
2023-01-22T07:14:01.026Z,90.5
2023-01-22T07:15:01.180Z,90.5
2023-01-22T07:16:00.352Z,90.5
2023-01-22T07:17:00.483Z,90.5
2023-01-22T07:18:00.612Z,90.6
2023-01-22T07:19:00.757Z,90.6
2023-01-22T07:20:00.912Z,90.6
2023-01-22T07:21:01.110Z,90.6
2023-01-22T07:22:01.243Z,90.6
2023-01-22T07:23:00.446Z,90.6
2023-01-22T07:24:00.518Z,90.6
2023-01-22T07:25:00.662Z,90.6
2023-01-22T07:26:00.815Z,90.6
2023-01-22T07:27:00.971Z,90.6
2023-01-22T07:28:01.130Z,90.6
2023-01-22T07:29:01.255Z,90.7
2023-01-22T07:30:00.429Z,90.7
2023-01-22T07:31:00.680Z,90.7
2023-01-22T07:32:00.706Z,90.7
2023-01-22T07:33:00.854Z,90.7
2023-01-22T07:34:01.008Z,90.7
2023-01-22T07:35:01.176Z,90.7
2023-01-22T07:36:00.313Z,90.8
2023-01-22T07:37:00.443Z,90.8
2023-01-22T07:38:00.622Z,90.8
2023-01-22T07:39:00.767Z,90.8
2023-01-22T07:40:00.930Z,90.8
2023-01-22T07:41:01.065Z,90.8
2023-01-22T07:42:01.435Z,90.8
2023-01-22T07:43:00.359Z,90.9
2023-01-22T07:44:00.516Z,90.9
2023-01-22T07:45:00.667Z,90.8
2023-01-22T07:46:00.811Z,90.8
2023-01-22T07:47:00.951Z,90.9
2023-01-22T07:48:01.117Z,90.9
2023-01-22T07:49:01.251Z,90.9
2023-01-22T07:50:00.414Z,90.9
2023-01-22T07:51:00.679Z,90.9
2023-01-22T07:52:00.710Z,90.9
2023-01-22T07:53:00.915Z,90.9
2023-01-22T07:54:00.990Z,90.9
2023-01-22T07:55:01.127Z,90.9
2023-01-22T07:56:00.279Z,90.9
2023-01-22T07:57:00.439Z,90.9
2023-01-22T07:58:00.582Z,90.9
2023-01-22T07:59:00.739Z,90.9
2023-01-22T08:00:00.876Z,90.9
2023-01-22T08:01:01.046Z,91
2023-01-22T08:02:03.508Z,90.9
2023-01-22T08:03:00.309Z,91
2023-01-22T08:04:00.461Z,91
2023-01-22T08:05:00.619Z,91
2023-01-22T08:06:00.758Z,91
2023-01-22T08:07:00.932Z,91
2023-01-22T08:08:01.043Z,91
2023-01-22T08:09:01.196Z,91
2023-01-22T08:10:00.337Z,91
2023-01-22T08:11:00.494Z,91
2023-01-22T08:12:00.677Z,91
2023-01-22T08:13:00.794Z,91
2023-01-22T08:14:00.980Z,91
2023-01-22T08:15:01.107Z,91
2023-01-22T08:16:01.320Z,91
2023-01-22T08:17:00.404Z,91
2023-01-22T08:18:00.543Z,91
2023-01-22T08:19:00.693Z,91
2023-01-22T08:20:00.866Z,91
2023-01-22T08:21:01.071Z,91
2023-01-22T08:22:01.132Z,91
2023-01-22T08:23:00.271Z,91
2023-01-22T08:24:00.429Z,91
2023-01-22T08:25:00.558Z,91
2023-01-22T08:26:00.696Z,91
2023-01-22T08:27:00.859Z,91
2023-01-22T08:28:00.990Z,91
2023-01-22T08:29:04.825Z,91
2023-01-22T08:30:00.298Z,91
2023-01-22T08:31:00.518Z,91
2023-01-22T08:32:00.759Z,91
2023-01-22T08:33:00.755Z,90.9
2023-01-22T08:34:00.902Z,90.9
2023-01-22T08:35:01.035Z,90.9
2023-01-22T08:36:01.189Z,90.9
2023-01-22T08:37:00.334Z,90.9
2023-01-22T08:38:00.503Z,90.9
2023-01-22T08:39:00.632Z,90.9
2023-01-22T08:40:00.812Z,90.9
2023-01-22T08:41:00.957Z,90.9
2023-01-22T08:42:01.105Z,90.9
2023-01-22T08:43:01.240Z,90.8
2023-01-22T08:44:00.376Z,90.8
2023-01-22T08:45:00.532Z,90.8
2023-01-22T08:46:00.714Z,90.8
2023-01-22T08:47:00.842Z,90.8
2023-01-22T08:48:00.962Z,90.8
2023-01-22T08:49:01.105Z,90.7
2023-01-22T08:50:01.272Z,90.7
2023-01-22T08:51:00.408Z,90.7
2023-01-22T08:52:00.543Z,90.7
2023-01-22T08:53:00.699Z,90.7
2023-01-22T08:54:00.858Z,90.7
2023-01-22T08:55:01.041Z,90.7
2023-01-22T08:56:01.165Z,90.7
2023-01-22T08:57:00.301Z,90.6
2023-01-22T08:58:00.447Z,90.6
2023-01-22T08:59:00.597Z,90.6
2023-01-22T09:00:01.690Z,90.6
2023-01-22T09:01:00.980Z,90.6
2023-01-22T09:02:01.126Z,90.6
2023-01-22T09:03:01.189Z,90.6
2023-01-22T09:04:00.342Z,90.6
2023-01-22T09:05:00.510Z,90.6
2023-01-22T09:06:00.636Z,90.5
2023-01-22T09:07:00.785Z,90.5
2023-01-22T09:08:00.927Z,90.5
2023-01-22T09:09:01.101Z,90.4
2023-01-22T09:10:01.239Z,90.4
2023-01-22T09:11:00.385Z,90.4
2023-01-22T09:12:00.524Z,90.4
2023-01-22T09:13:00.679Z,90.4
2023-01-22T09:14:00.835Z,90.3
2023-01-22T09:15:00.984Z,90.3
2023-01-22T09:16:01.127Z,90.2
2023-01-22T09:17:01.265Z,90.2
2023-01-22T09:18:00.409Z,90.2
2023-01-22T09:19:00.542Z,90.1
2023-01-22T09:20:00.691Z,90.1
2023-01-22T09:21:00.837Z,90.1
2023-01-22T09:22:00.984Z,90.1
2023-01-22T09:23:01.145Z,90.1
2023-01-22T09:24:00.277Z,90.1
2023-01-22T09:25:00.436Z,90.1
2023-01-22T09:26:00.568Z,90
2023-01-22T09:27:00.723Z,90
2023-01-22T09:28:00.894Z,90
2023-01-22T09:29:01.057Z,89.9
2023-01-22T09:30:01.169Z,89.9
2023-01-22T09:31:00.348Z,89.9
2023-01-22T09:32:00.534Z,89.9
2023-01-22T09:33:00.617Z,89.8
2023-01-22T09:34:00.768Z,89.8
2023-01-22T09:35:00.908Z,89.8
2023-01-22T09:36:01.047Z,89.8
2023-01-22T09:37:01.194Z,89.7
2023-01-22T09:38:00.347Z,89.7
2023-01-22T09:39:00.510Z,89.7
2023-01-22T09:40:00.639Z,89.6
2023-01-22T09:41:00.779Z,89.6
2023-01-22T09:42:00.940Z,89.6
2023-01-22T09:43:01.074Z,89.6
2023-01-22T09:44:01.233Z,89.6
2023-01-22T09:45:00.358Z,89.6
2023-01-22T09:46:00.689Z,89.6
2023-01-22T09:47:00.682Z,89.6
2023-01-22T09:48:00.809Z,89.5
2023-01-22T09:49:00.964Z,89.5
2023-01-22T09:50:01.111Z,89.4
2023-01-22T09:51:01.270Z,89.4
2023-01-22T09:52:00.409Z,89.4
2023-01-22T09:53:00.576Z,89.4
2023-01-22T09:54:00.711Z,89.4
2023-01-22T09:55:00.872Z,89.4
2023-01-22T09:56:01.043Z,89.4
2023-01-22T09:57:01.143Z,89.3
2023-01-22T09:58:00.310Z,89.2
2023-01-22T09:59:00.442Z,89.2
2023-01-22T10:00:00.587Z,89.1
2023-01-22T10:01:00.880Z,89.1
2023-01-22T10:02:00.904Z,89.2
2023-01-22T10:03:01.024Z,89.1
2023-01-22T10:04:01.187Z,89.1
2023-01-22T10:05:00.327Z,89
2023-01-22T10:06:00.506Z,89
2023-01-22T10:07:00.630Z,89
2023-01-22T10:08:00.773Z,88.9
2023-01-22T10:09:00.957Z,88.9
2023-01-22T10:10:01.085Z,88.9
2023-01-22T10:11:01.252Z,88.9
2023-01-22T10:12:00.370Z,89
2023-01-22T10:13:00.520Z,88.9
2023-01-22T10:14:00.790Z,88.8
2023-01-22T10:15:00.819Z,88.8
2023-01-22T10:16:00.987Z,88.8
2023-01-22T10:17:01.133Z,88.8
2023-01-22T10:18:01.284Z,88.8
2023-01-22T10:19:00.403Z,88.8
2023-01-22T10:20:00.566Z,88.7
2023-01-22T10:21:00.727Z,88.7
2023-01-22T10:22:00.891Z,88.7
2023-01-22T10:23:01.026Z,88.6
2023-01-22T10:24:01.168Z,88.5
2023-01-22T10:25:00.344Z,88.5
2023-01-22T10:26:00.477Z,88.5
2023-01-22T10:27:00.615Z,88.5
2023-01-22T10:28:00.791Z,88.4
2023-01-22T10:29:00.926Z,88.4
2023-01-22T10:30:01.108Z,88.3
2023-01-22T10:31:01.317Z,88.4
2023-01-22T10:32:00.405Z,88.4
2023-01-22T10:33:00.507Z,88.4
2023-01-22T10:34:00.663Z,88.4
2023-01-22T10:35:00.836Z,88.4
2023-01-22T10:36:00.964Z,88.5
2023-01-22T10:37:01.119Z,88.4
2023-01-22T10:38:01.260Z,88.4
2023-01-22T10:39:00.399Z,88.4
2023-01-22T10:40:00.568Z,88.4
2023-01-22T10:41:00.703Z,88.4
2023-01-22T10:42:00.846Z,88.5
2023-01-22T10:43:01.029Z,88.5
2023-01-22T10:44:01.159Z,88.5
2023-01-22T10:45:00.298Z,88.5
2023-01-22T10:46:00.518Z,88.4
2023-01-22T10:47:00.585Z,88.3
2023-01-22T10:48:00.762Z,88.3
2023-01-22T10:49:00.919Z,88.3
2023-01-22T10:50:03.363Z,88.4
2023-01-22T10:51:01.303Z,88.5
2023-01-22T10:52:00.360Z,88.5
2023-01-22T10:53:00.509Z,88.5
2023-01-22T10:54:00.644Z,88.4
2023-01-22T10:55:00.786Z,88.5
2023-01-22T10:56:00.927Z,88.5
2023-01-22T10:57:01.098Z,88.5
2023-01-22T10:58:01.219Z,88.5
2023-01-22T10:59:00.370Z,88.6
2023-01-22T11:00:00.514Z,88.6
2023-01-22T11:01:00.694Z,88.6
2023-01-22T11:02:00.822Z,88.7
2023-01-22T11:03:00.958Z,88.7
2023-01-22T11:04:01.123Z,88.6
2023-01-22T11:06:00.388Z,88.8
2023-01-22T11:07:00.510Z,88.8
2023-01-22T11:08:00.663Z,88.8
2023-01-22T11:09:00.805Z,88.9
2023-01-22T11:10:00.956Z,88.9
2023-01-22T11:11:01.126Z,88.8
2023-01-22T11:12:01.300Z,88.8
2023-01-22T11:13:00.421Z,88.9
2023-01-22T11:14:00.560Z,89
2023-01-22T11:15:00.698Z,89
2023-01-22T11:16:00.920Z,89
2023-01-22T11:17:00.999Z,89
2023-01-22T11:18:01.159Z,89
2023-01-22T11:19:00.287Z,89
2023-01-22T11:20:00.419Z,89
2023-01-22T11:21:00.586Z,89
2023-01-22T11:22:00.691Z,89
2023-01-22T11:23:00.911Z,89
2023-01-22T11:24:00.912Z,89
2023-01-22T11:26:00.662Z,88.8
2023-01-22T11:27:00.714Z,88.9
2023-01-22T11:28:00.853Z,89
2023-01-22T11:30:00.734Z,89
2023-01-22T11:31:00.910Z,89
2023-01-22T11:32:00.826Z,88.9
2023-01-22T11:33:00.989Z,88.9
2023-01-22T11:34:01.116Z,88.9
2023-01-22T11:35:00.286Z,88.9
2023-01-22T11:36:00.429Z,88.9
2023-01-22T11:37:00.572Z,88.9
2023-01-22T11:38:00.731Z,89
2023-01-22T11:39:00.892Z,89
2023-01-22T11:40:01.095Z,89
2023-01-22T11:41:01.202Z,89
2023-01-22T11:42:00.326Z,89
2023-01-22T11:43:00.470Z,89
2023-01-22T11:44:00.631Z,89
2023-01-22T11:45:00.742Z,89.1
2023-01-22T11:46:00.961Z,89
2023-01-22T11:47:01.014Z,89
2023-01-22T11:48:01.186Z,89
2023-01-22T11:49:00.327Z,89.1
2023-01-22T11:50:00.471Z,89.1
2023-01-22T11:51:00.633Z,89.1
2023-01-22T11:52:00.712Z,89.1
2023-01-22T11:53:00.888Z,89.1
2023-01-22T11:54:01.015Z,89
2023-01-22T11:55:01.159Z,89
2023-01-22T11:56:00.281Z,89.1
2023-01-22T11:57:00.401Z,89.1
2023-01-22T11:58:00.530Z,89.1
2023-01-22T11:59:00.639Z,89.1
2023-01-22T12:00:00.784Z,89.2
2023-01-22T12:01:00.873Z,89.2
2023-01-22T12:02:01.007Z,89.2
2023-01-22T12:03:01.173Z,89.1
2023-01-22T12:04:00.389Z,89.1
2023-01-22T12:05:00.388Z,89.2
2023-01-22T12:06:00.487Z,89.1
2023-01-22T12:07:00.608Z,89.1
2023-01-22T12:08:00.718Z,89.2
2023-01-22T12:09:00.847Z,89.2
2023-01-22T12:10:00.972Z,89.2
2023-01-22T12:11:01.083Z,89.2
2023-01-22T12:12:01.190Z,89.2
2023-01-22T12:13:00.333Z,89.1
2023-01-22T12:14:00.447Z,89.1
2023-01-22T12:15:00.569Z,89
2023-01-22T12:16:00.716Z,89
2023-01-22T12:17:00.787Z,88.9
2023-01-22T12:18:00.901Z,88.9
2023-01-22T12:19:01.016Z,88.9
2023-01-22T12:20:01.144Z,88.9
2023-01-22T12:21:00.249Z,88.9
2023-01-22T12:22:00.361Z,88.9
2023-01-22T12:23:00.486Z,88.9
2023-01-22T12:24:00.614Z,88.8
2023-01-22T12:25:00.700Z,88.8
2023-01-22T12:26:00.813Z,88.8
2023-01-22T12:27:00.921Z,88.7
2023-01-22T12:28:01.035Z,88.7
2023-01-22T12:29:01.170Z,88.7
2023-01-22T12:30:00.267Z,88.7
2023-01-22T12:31:00.490Z,88.7
2023-01-22T12:32:00.505Z,88.6
2023-01-22T12:33:00.597Z,88.6
2023-01-22T12:34:00.706Z,88.5
2023-01-22T12:35:00.838Z,88.5
2023-01-22T12:36:00.945Z,88.6
2023-01-22T12:37:01.051Z,88.6
2023-01-22T12:38:01.168Z,88.6
2023-01-22T12:39:00.277Z,88.6
2023-01-22T12:40:00.401Z,88.5
2023-01-22T12:41:00.533Z,88.5
2023-01-22T12:42:00.641Z,88.5
2023-01-22T12:43:00.730Z,88.6
2023-01-22T12:44:00.845Z,88.5
2023-01-22T12:45:00.937Z,88.5
2023-01-22T12:46:01.063Z,88.5
2023-01-22T12:47:01.180Z,88.5
2023-01-22T12:48:00.264Z,88.5
2023-01-22T12:49:00.374Z,88.5
2023-01-22T12:50:00.477Z,88.5
2023-01-22T12:51:00.620Z,88.4
2023-01-22T12:52:00.729Z,88.4
2023-01-22T12:53:00.898Z,88.4
2023-01-22T12:54:00.936Z,88.4
2023-01-22T12:55:01.082Z,88.4
2023-01-22T12:56:01.173Z,88.3
2023-01-22T12:57:00.269Z,88.3
2023-01-22T12:58:00.379Z,88.2
2023-01-22T12:59:00.507Z,88.2
2023-01-22T13:00:00.606Z,88.3
2023-01-22T13:01:00.743Z,88.3
2023-01-22T13:02:00.841Z,88.3
2023-01-22T13:03:00.929Z,88.3
2023-01-22T13:04:01.051Z,88.3
2023-01-22T13:05:01.157Z,88.4
2023-01-22T13:06:00.274Z,88.4
2023-01-22T13:07:00.632Z,88.4
2023-01-22T13:08:00.480Z,88.5
2023-01-22T13:09:00.595Z,88.5
2023-01-22T13:10:00.699Z,88.5
2023-01-22T13:11:00.820Z,88.4
2023-01-22T13:12:00.903Z,88.5
2023-01-22T13:13:01.023Z,88.5
2023-01-22T13:14:14.264Z,88.6
2023-01-22T13:15:00.237Z,88.6
2023-01-22T13:16:00.373Z,88.6
2023-01-22T13:17:00.466Z,88.6
2023-01-22T13:18:06.490Z,88.6
2023-01-22T13:19:00.954Z,88.6
2023-01-22T13:20:00.783Z,88.6
2023-01-22T13:21:00.872Z,88.6
2023-01-22T13:22:01.000Z,88.6
2023-01-22T13:23:01.094Z,88.6
2023-01-22T13:24:01.198Z,88.7
2023-01-22T13:25:00.336Z,88.7
2023-01-22T13:26:00.415Z,88.7
2023-01-22T13:27:00.566Z,88.7
2023-01-22T13:28:00.630Z,88.7